Time;durP1;ratioP1;P1;durP2;ratioP2;P2;SDS_P1;SDS_P2;PMS_P1;PMS_P2;Temp;Humidity;BMP_temperature;BMP_pressure;BME280_temperature;BME280_humidity;BME280_pressure;Samples;Min_cycle;Max_cycle;Signal;HPM_P1;HPM_P2
2022/04/04 00:00:13;;;;;;;7.05;3.72;;;;;;;1.43;100.00;101832.06;5013383;28;20056;-57
2022/04/04 00:02:42;;;;;;;10.00;3.72;;;;;;;1.41;100.00;101833.78;5013106;28;20524;-58
2022/04/04 00:05:10;;;;;;;8.02;3.65;;;;;;;1.39;100.00;101827.78;5013182;28;20493;-58
2022/04/04 00:07:39;;;;;;;9.63;3.70;;;;;;;1.39;100.00;101827.78;5013138;28;20361;-58
2022/04/04 00:10:09;;;;;;;7.65;3.33;;;;;;;1.37;100.00;101816.53;5013571;28;20096;-58
2022/04/04 00:12:37;;;;;;;7.93;3.50;;;;;;;1.32;100.00;101811.44;5013061;28;20041;-58
2022/04/04 00:15:06;;;;;;;8.13;3.50;;;;;;;1.34;100.00;101808.81;5012889;28;20046;-57
2022/04/04 00:17:34;;;;;;;6.65;3.10;;;;;;;1.31;100.00;101808.81;5012676;28;20397;-57
2022/04/04 00:20:04;;;;;;;8.98;3.28;;;;;;;1.33;100.00;101800.16;5013083;28;20108;-57
2022/04/04 00:22:32;;;;;;;6.55;3.47;;;;;;;1.31;100.00;101795.88;5011415;28;20068;-57
2022/04/04 00:25:00;;;;;;;8.48;3.50;;;;;;;1.30;100.00;101796.75;5012964;28;20080;-57
2022/04/04 00:27:30;;;;;;;7.28;3.40;;;;;;;1.32;100.00;101789.81;5012606;28;20416;-57
2022/04/04 00:29:58;;;;;;;7.65;3.30;;;;;;;1.31;100.00;101782.91;5012847;28;20492;-57
2022/04/04 00:32:26;;;;;;;7.63;3.80;;;;;;;1.31;100.00;101780.31;5012622;28;20058;-57
2022/04/04 00:34:54;;;;;;;7.93;3.45;;;;;;;1.32;100.00;101775.13;5012862;28;20072;-57
2022/04/04 00:37:23;;;;;;;10.55;4.05;;;;;;;1.29;100.00;101769.97;5012887;28;20041;-57
2022/04/04 00:39:51;;;;;;;8.48;3.63;;;;;;;1.29;100.00;101767.38;5012828;28;20128;-57
2022/04/04 00:42:19;;;;;;;7.05;3.67;;;;;;;1.29;100.00;101758.75;5012614;28;20056;-61
2022/04/04 00:44:51;;;;;;;8.10;3.90;;;;;;;1.24;100.00;101761.41;5013038;28;20511;-57
2022/04/04 00:47:19;;;;;;;6.68;3.42;;;;;;;1.25;100.00;101757.06;5012648;28;20037;-62
2022/04/04 00:49:48;;;;;;;9.05;3.72;;;;;;;1.25;100.00;101762.25;5012772;28;20064;-62
2022/04/04 00:52:16;;;;;;;7.95;4.00;;;;;;;1.22;100.00;101759.72;5011272;28;20060;-57
2022/04/04 00:54:47;;;;;;;10.30;4.15;;;;;;;1.24;100.00;101755.34;5012535;28;20042;-61
2022/04/04 00:57:16;;;;;;;8.60;4.07;;;;;;;1.25;100.00;101749.28;5012518;28;20053;-57
2022/04/04 00:59:45;;;;;;;10.00;4.45;;;;;;;1.24;100.00;101751.03;5012573;28;20461;-57
2022/04/04 01:02:14;;;;;;;10.65;4.57;;;;;;;1.23;100.00;101738.94;5012465;28;20485;-58
2022/04/04 01:04:42;;;;;;;8.13;4.38;;;;;;;1.26;100.00;101738.06;5012490;28;20084;-57
2022/04/04 01:07:10;;;;;;;9.48;4.70;;;;;;;1.25;100.00;101725.97;5013207;28;20108;-57
2022/04/04 01:09:39;;;;;;;12.10;5.20;;;;;;;1.26;100.00;101722.50;5018866;28;20049;-57
2022/04/04 01:12:09;;;;;;;11.60;5.63;;;;;;;1.26;100.00;101717.31;5018854;28;20465;-57
2022/04/04 01:14:38;;;;;;;12.48;5.10;;;;;;;1.23;100.00;101710.44;5018879;28;20049;-57
2022/04/04 01:17:07;;;;;;;10.18;4.70;;;;;;;1.22;100.00;101707.88;5018957;28;20516;-61
2022/04/04 01:19:37;;;;;;;9.38;5.15;;;;;;;1.17;100.00;101695.84;5018907;28;20492;-61
2022/04/04 01:22:07;;;;;;;12.63;5.22;;;;;;;1.16;100.00;101694.09;5018818;28;20129;-56
2022/04/04 01:24:38;;;;;;;9.23;4.45;;;;;;;1.19;100.00;101690.63;5018807;28;20042;-57
2022/04/04 01:27:07;;;;;;;11.07;4.53;;;;;;;1.17;100.00;101687.19;5018787;28;20046;-57
2022/04/04 01:29:36;;;;;;;8.05;4.60;;;;;;;1.16;100.00;101681.16;5018785;28;20030;-56
2022/04/04 01:32:06;;;;;;;10.52;4.68;;;;;;;1.18;100.00;101675.94;5018666;28;20057;-57
2022/04/04 01:34:34;;;;;;;10.57;4.05;;;;;;;1.15;100.00;101674.25;5018608;28;20052;-57
2022/04/04 01:37:03;;;;;;;9.05;4.22;;;;;;;1.22;100.00;101663.81;5018765;28;20362;-61
2022/04/04 01:39:31;;;;;;;9.13;4.85;;;;;;;1.24;100.00;101657.75;5018700;28;20129;-56
2022/04/04 01:42:01;;;;;;;11.95;5.03;;;;;;;1.24;100.00;101643.91;5018626;28;20077;-61
2022/04/04 01:44:29;;;;;;;8.45;4.55;;;;;;;1.25;100.00;101645.63;5018876;28;20489;-61
2022/04/04 01:46:58;;;;;;;10.60;4.82;;;;;;;1.24;100.00;101638.72;5018533;28;20504;-61
2022/04/04 01:49:26;;;;;;;8.75;4.72;;;;;;;1.26;100.00;101636.97;5016913;28;20044;-61
2022/04/04 01:51:54;;;;;;;9.90;5.05;;;;;;;1.26;100.00;101631.81;5018184;28;20528;-58
2022/04/04 01:54:22;;;;;;;8.75;4.60;;;;;;;1.24;100.00;101621.47;5018274;28;20096;-58
2022/04/04 01:56:50;;;;;;;9.73;4.70;;;;;;;1.23;100.00;101622.34;5018462;28;20515;-58
2022/04/04 01:59:20;;;;;;;10.38;4.78;;;;;;;1.31;100.00;101614.44;5018667;28;20068;-58
2022/04/04 02:01:48;;;;;;;10.60;4.57;;;;;;;1.25;100.00;101611.94;5018521;28;20054;-57
2022/04/04 02:04:16;;;;;;;9.90;4.90;;;;;;;1.26;100.00;101606.72;5018241;28;20103;-58
2022/04/04 02:06:44;;;;;;;9.52;5.10;;;;;;;1.31;100.00;101598.88;5017960;28;20049;-58
2022/04/04 02:09:12;;;;;;;8.25;4.65;;;;;;;1.30;100.00;101592.00;5018394;28;20045;-57
2022/04/04 02:11:40;;;;;;;8.40;4.55;;;;;;;1.35;100.00;101596.22;5017562;28;20068;-62
2022/04/04 02:14:09;;;;;;;11.23;5.43;;;;;;;1.33;100.00;101576.41;5018606;28;20053;-61
2022/04/04 02:16:39;;;;;;;9.00;5.07;;;;;;;1.36;100.00;101576.34;5018137;28;20050;-62
2022/04/04 02:19:08;;;;;;;11.15;5.70;;;;;;;1.36;100.00;101576.34;5017199;28;20045;-62
2022/04/04 02:21:37;;;;;;;13.27;5.97;;;;;;;1.33;100.00;101572.06;5015393;28;20441;-61
2022/04/04 02:24:05;;;;;;;13.82;5.97;;;;;;;1.39;100.00;101558.16;5015094;28;20057;-62
2022/04/04 02:26:33;;;;;;;11.55;5.78;;;;;;;1.46;100.00;101554.59;5013737;28;20069;-61
2022/04/04 02:29:01;;;;;;;11.60;5.57;;;;;;;1.49;100.00;101545.91;5015226;28;20536;-61
2022/04/04 02:31:29;;;;;;;10.02;5.65;;;;;;;1.49;100.00;101541.56;5014846;28;20408;-62
2022/04/04 02:33:59;;;;;;;11.45;5.93;;;;;;;1.48;100.00;101532.06;5014980;28;20037;-62
2022/04/04 02:36:27;;;;;;;10.45;6.05;;;;;;;1.50;100.00;101532.91;5015089;28;20046;-61
2022/04/04 02:38:55;;;;;;;11.45;6.60;;;;;;;1.54;100.00;101527.69;5015055;28;20112;-57
2022/04/04 02:41:23;;;;;;;12.13;6.78;;;;;;;1.55;100.00;101521.63;5014834;28;20054;-57
2022/04/04 02:43:51;;;;;;;12.20;7.20;;;;;;;1.58;100.00;101521.56;5015050;28;20510;-57
2022/04/04 02:46:19;;;;;;;12.05;6.55;;;;;;;1.58;100.00;101517.25;5014889;28;20046;-58
2022/04/04 02:48:48;;;;;;;9.70;6.40;;;;;;;1.60;100.00;101514.63;5014759;28;20056;-57
2022/04/04 02:51:17;;;;;;;13.88;7.40;;;;;;;1.58;100.00;101512.06;5014950;28;20074;-57
2022/04/04 02:53:45;;;;;;;13.18;7.97;;;;;;;1.61;100.00;101492.97;5014648;28;20444;-57
2022/04/04 02:56:30;;;;;;;11.25;6.88;;;;;;;1.70;100.00;101492.81;5014545;28;20129;-57
2022/04/04 02:59:03;;;;;;;11.77;7.40;;;;;;;1.71;100.00;101489.34;5014618;28;20046;-57
2022/04/04 03:01:31;;;;;;;;;;;;;;;1.66;100.00;101481.66;5014907;28;20092;-57
2022/04/04 03:03:59;;;;;;;12.50;7.13;;;;;;;1.67;100.00;101475.56;5014108;28;19964;-57
2022/04/04 03:06:29;;;;;;;12.10;7.43;;;;;;;1.74;100.00;101465.94;5014604;28;20398;-63
2022/04/04 03:08:57;;;;;;;13.00;7.55;;;;;;;1.71;100.00;101466.00;5014227;28;20068;-62
2022/04/04 03:11:26;;;;;;;13.40;8.18;;;;;;;1.78;99.95;101462.41;5014448;28;20138;-62
2022/04/04 03:13:54;;;;;;;10.88;7.53;;;;;;;1.76;99.40;101459.00;5014135;28;20050;-61
2022/04/04 03:16:22;;;;;;;11.85;7.00;;;;;;;1.77;99.92;101449.47;5014407;28;20436;-61
2022/04/04 03:18:51;;;;;;;12.93;7.25;;;;;;;1.75;99.43;101441.72;5014532;28;20489;-61
2022/04/04 03:21:19;;;;;;;11.65;7.07;;;;;;;1.79;99.64;101434.75;5014295;28;20504;-61
2022/04/04 03:23:50;;;;;;;11.95;7.78;;;;;;;1.78;99.74;101435.63;5014110;28;20501;-61
2022/04/04 03:26:18;;;;;;;12.05;7.25;;;;;;;1.78;100.00;101431.28;5014126;28;20052;-61
2022/04/04 03:28:47;;;;;;;13.02;7.53;;;;;;;1.84;99.56;101423.41;5013908;28;20428;-61
2022/04/04 03:31:15;;;;;;;10.48;7.20;;;;;;;1.92;99.33;101417.19;5013559;28;20050;-61
2022/04/04 03:33:45;;;;;;;11.98;7.43;;;;;;;1.91;98.75;101418.94;5013986;28;20729;-61
2022/04/04 03:36:13;;;;;;;12.13;7.03;;;;;;;1.90;99.23;101406.84;5014054;28;20042;-61
2022/04/04 03:38:41;;;;;;;11.65;6.97;;;;;;;1.93;99.35;101399.00;5013997;28;20108;-62
2022/04/04 03:41:10;;;;;;;11.75;6.95;;;;;;;1.92;99.36;101392.09;5013893;28;20053;-62
2022/04/04 03:43:38;;;;;;;10.15;6.47;;;;;;;1.93;99.39;101399.00;5012623;28;20060;-62
2022/04/04 03:46:07;;;;;;;12.32;6.90;;;;;;;2.00;98.54;101389.34;5013626;28;20096;-62
2022/04/04 03:48:35;;;;;;;11.93;6.90;;;;;;;1.99;98.66;101377.25;5013445;28;20428;-62
2022/04/04 03:51:04;;;;;;;11.80;6.57;;;;;;;2.00;98.42;101378.97;5013268;28;20130;-62
2022/04/04 03:53:32;;;;;;;11.65;7.25;;;;;;;2.00;98.09;101373.78;5013389;28;20529;-62
2022/04/04 03:56:00;;;;;;;12.02;6.65;;;;;;;1.99;98.36;101365.16;5013312;28;20064;-62
2022/04/04 03:58:29;;;;;;;12.73;6.95;;;;;;;2.07;97.89;101364.13;5013576;28;20046;-62
2022/04/04 04:00:57;;;;;;;10.77;7.00;;;;;;;2.02;97.84;101357.31;5013498;28;20503;-62
2022/04/04 04:03:26;;;;;;;10.27;6.13;;;;;;;2.05;97.99;101360.75;5013214;28;20497;-62
2022/04/04 04:06:11;;;;;;;9.88;6.25;;;;;;;2.10;97.19;101357.16;5013727;28;20137;-62
2022/04/04 04:08:41;;;;;;;12.73;6.63;;;;;;;2.09;97.09;101347.66;5013312;28;20046;-61
2022/04/04 04:11:09;;;;;;;14.25;6.28;;;;;;;2.15;96.88;101331.94;5013218;28;20042;-62
2022/04/04 04:13:40;;;;;;;8.30;5.45;;;;;;;2.12;96.16;101332.00;5013244;28;20057;-62
2022/04/04 04:16:09;;;;;;;9.77;5.93;;;;;;;2.09;97.02;101324.31;5013470;28;20045;-62
2022/04/04 04:18:38;;;;;;;9.80;6.03;;;;;;;2.11;97.66;101319.91;5013250;28;20057;-62
2022/04/04 04:21:08;;;;;;;15.07;6.93;;;;;;;2.23;96.54;101316.19;5012857;28;20050;-62
2022/04/04 04:23:43;;;;;;;11.60;6.50;;;;;;;2.17;97.07;101317.19;5012891;28;20129;-62
2022/04/04 04:26:13;;;;;;;11.25;6.05;;;;;;;2.19;97.27;101306.78;5013006;28;20061;-62
2022/04/04 04:28:44;;;;;;;14.20;6.57;;;;;;;2.29;96.53;101303.09;5013082;28;20049;-62
2022/04/04 04:31:14;;;;;;;11.27;5.85;;;;;;;2.30;96.22;101301.34;5013144;28;20497;-61
2022/04/04 04:33:42;;;;;;;8.90;5.28;;;;;;;2.25;97.17;101279.81;5012832;28;20120;-61
2022/04/04 04:36:11;;;;;;;11.65;6.45;;;;;;;2.31;96.95;101280.53;5012864;28;20045;-61
2022/04/04 04:38:39;;;;;;;12.25;5.97;;;;;;;2.27;96.79;101276.31;5012730;28;20080;-61
2022/04/04 04:41:07;;;;;;;9.05;5.63;;;;;;;2.36;96.47;101272.66;5012806;28;20473;-61
2022/04/04 04:43:35;;;;;;;12.52;6.43;;;;;;;2.34;96.66;101272.66;5010572;28;20062;-62
2022/04/04 04:46:06;;;;;;;12.90;6.05;;;;;;;2.33;96.96;101267.50;5012531;28;20601;-61
2022/04/04 04:48:34;;;;;;;9.77;5.88;;;;;;;2.27;97.62;101263.31;5012551;28;20044;-61
2022/04/04 04:51:02;;;;;;;11.07;6.40;;;;;;;2.33;97.25;101263.19;5011369;28;20401;-61
2022/04/04 04:53:31;;;;;;;12.38;6.75;;;;;;;2.34;97.14;101253.66;5012489;28;20054;-61
2022/04/04 04:55:59;;;;;;;10.57;5.85;;;;;;;2.36;97.59;101238.91;5012518;28;20042;-61
2022/04/04 04:58:27;;;;;;;10.75;6.30;;;;;;;2.32;97.96;101237.28;5012846;28;20057;-61
2022/04/04 05:00:55;;;;;;;10.60;6.03;;;;;;;2.36;98.40;101231.13;5012373;28;20096;-61
2022/04/04 05:03:25;;;;;;;10.85;6.20;;;;;;;2.32;97.62;101224.28;5012216;28;20125;-61
2022/04/04 05:05:53;;;;;;;10.00;6.00;;;;;;;2.36;97.83;101223.34;5012183;28;20054;-61
2022/04/04 05:08:21;;;;;;;11.38;6.57;;;;;;;2.41;97.93;101223.19;5012378;28;20058;-61
2022/04/04 05:10:50;;;;;;;10.77;6.13;;;;;;;2.45;97.83;101209.25;5012196;28;20504;-61
2022/04/04 05:13:18;;;;;;;15.00;7.00;;;;;;;2.49;97.67;101211.72;5012336;28;20054;-57
2022/04/04 05:15:47;;;;;;;14.00;6.72;;;;;;;2.45;98.31;101204.06;5012244;28;20386;-58
2022/04/04 05:18:15;;;;;;;11.82;6.93;;;;;;;2.51;97.36;101199.56;5012279;28;20046;-57
2022/04/04 05:20:45;;;;;;;12.68;6.40;;;;;;;2.52;98.03;101185.69;5012240;28;20038;-57
2022/04/04 05:23:14;;;;;;;12.40;6.63;;;;;;;2.58;97.53;101173.41;5012162;28;20058;-58
2022/04/04 05:25:43;;;;;;;14.85;7.20;;;;;;;2.57;98.08;101175.19;5012120;28;20140;-57
2022/04/04 05:28:11;;;;;;;12.05;7.00;;;;;;;2.61;97.50;101162.97;5011838;28;20437;-57
2022/04/04 05:30:39;;;;;;;11.38;6.45;;;;;;;2.65;97.62;101154.22;5011582;28;20050;-57
2022/04/04 05:33:09;;;;;;;11.63;6.45;;;;;;;2.72;97.18;101160.09;5011924;28;20092;-57
2022/04/04 05:35:37;;;;;;;14.05;7.10;;;;;;;2.72;96.75;101155.72;5012041;28;20054;-56
2022/04/04 05:38:07;;;;;;;11.00;6.60;;;;;;;2.76;96.15;101146.97;5012211;28;20084;-57
2022/04/04 05:40:35;;;;;;;12.75;7.03;;;;;;;2.83;96.60;101152.84;5012011;28;20042;-56
2022/04/04 05:43:03;;;;;;;14.88;6.60;;;;;;;2.81;96.65;101145.09;5012043;28;20042;-57
2022/04/04 05:45:31;;;;;;;13.88;6.47;;;;;;;2.90;96.37;101140.53;5011976;28;20057;-57
2022/04/04 05:47:59;;;;;;;11.60;6.75;;;;;;;2.93;96.21;101127.44;5012307;28;20052;-57
2022/04/04 05:50:27;;;;;;;13.45;6.68;;;;;;;2.98;95.96;101130.78;5012198;28;20485;-57
2022/04/04 05:52:56;;;;;;;13.55;6.82;;;;;;;2.93;95.81;101123.13;5011896;28;20042;-57
2022/04/04 05:55:26;;;;;;;10.70;6.32;;;;;;;2.95;96.48;101115.28;5014887;28;20111;-57
2022/04/04 05:57:54;;;;;;;12.70;6.85;;;;;;;2.98;95.44;101112.59;5015922;28;20100;-57
2022/04/04 06:00:22;;;;;;;13.05;7.00;;;;;;;3.02;95.23;101111.59;5015599;28;20149;-57
2022/04/04 06:02:50;;;;;;;12.82;6.95;;;;;;;3.08;95.03;101105.38;5015589;28;20493;-57
2022/04/04 06:05:18;;;;;;;13.50;6.97;;;;;;;3.12;95.15;101102.66;5015555;28;20049;-57
2022/04/04 06:07:47;;;;;;;13.55;6.47;;;;;;;3.15;95.23;101099.94;5015293;28;20054;-57
2022/04/04 06:10:16;;;;;;;13.27;6.40;;;;;;;3.17;95.13;101089.50;5015531;28;20140;-61
2022/04/04 06:12:46;;;;;;;14.40;6.78;;;;;;;3.28;94.82;101081.38;5015446;28;20054;-61
2022/04/04 06:15:15;;;;;;;14.25;7.35;;;;;;;3.29;94.44;101083.09;5015309;28;20050;-61
2022/04/04 06:17:45;;;;;;;11.13;6.45;;;;;;;3.31;94.24;101074.34;5013942;28;20054;-61
2022/04/04 06:20:14;;;;;;;11.20;6.22;;;;;;;3.36;93.38;101068.97;5015086;28;20482;-61
2022/04/04 06:22:43;;;;;;;12.52;6.38;;;;;;;3.37;93.37;101070.69;5015053;28;20241;-61
2022/04/04 06:25:13;;;;;;;12.27;6.75;;;;;;;3.50;93.17;101071.13;5014830;28;20038;-61
2022/04/04 06:27:42;;;;;;;12.90;6.70;;;;;;;3.56;92.82;101063.16;5014749;28;20053;-61
2022/04/04 06:30:13;;;;;;;12.32;6.55;;;;;;;3.59;92.21;101054.41;5014672;28;20092;-61
2022/04/04 06:32:43;;;;;;;13.82;7.50;;;;;;;3.67;92.39;101055.00;5014584;28;20050;-62
2022/04/04 06:35:12;;;;;;;11.02;6.72;;;;;;;3.73;92.00;101046.97;5014882;28;20564;-61
2022/04/04 06:37:40;;;;;;;11.98;6.35;;;;;;;3.83;90.65;101048.38;5015319;28;20050;-62
2022/04/04 06:40:10;;;;;;;10.63;6.82;;;;;;;3.84;90.26;101044.84;5015091;28;20076;-61
2022/04/04 06:42:39;;;;;;;11.15;6.05;;;;;;;3.92;90.08;101025.56;5014901;28;20050;-61
2022/04/04 06:45:10;;;;;;;12.80;6.50;;;;;;;3.94;89.72;101026.34;5014673;28;20081;-61
2022/04/04 06:47:39;;;;;;;12.27;6.30;;;;;;;3.99;89.83;101022.66;5014902;28;20069;-62
2022/04/04 06:50:08;;;;;;;10.85;6.55;;;;;;;4.02;89.30;101026.91;5014912;28;20049;-61
2022/04/04 06:52:37;;;;;;;11.02;6.13;;;;;;;4.03;89.39;101016.44;5014710;28;20050;-61
2022/04/04 06:55:23;;;;;;;14.52;6.13;;;;;;;4.11;89.13;101020.56;5014631;28;20049;-61
2022/04/04 06:57:51;;;;;;;11.68;6.47;;;;;;;4.16;89.07;101010.81;5014715;28;20045;-61
2022/04/04 07:00:21;;;;;;;11.20;6.97;;;;;;;4.22;88.39;101019.25;5014923;28;20561;-62
2022/04/04 07:02:53;;;;;;;10.20;5.93;;;;;;;4.28;87.86;101010.41;5014393;28;20046;-61
2022/04/04 07:05:21;;;;;;;11.63;5.93;;;;;;;4.34;87.44;100993.69;5013756;28;20050;-61
2022/04/04 07:07:49;;;;;;;11.50;5.80;;;;;;;4.39;87.32;100989.16;5014531;28;20377;-61
2022/04/04 07:10:17;;;;;;;9.68;5.55;;;;;;;4.48;86.41;100982.75;5014595;28;20042;-63
2022/04/04 07:12:46;;;;;;;9.60;5.40;;;;;;;4.49;85.89;100985.31;5014390;28;20404;-62
2022/04/04 07:15:14;;;;;;;8.25;5.03;;;;;;;4.60;85.40;100984.06;5014203;28;20508;-62
2022/04/04 07:17:44;;;;;;;10.18;5.50;;;;;;;4.68;85.15;100982.84;5014319;28;20054;-62
2022/04/04 07:20:14;;;;;;;9.52;5.35;;;;;;;4.75;84.78;100970.44;5014371;28;20448;-62
2022/04/04 07:22:44;;;;;;;8.38;5.35;;;;;;;4.81;84.47;100974.56;5013911;28;20501;-62
2022/04/04 07:25:14;;;;;;;12.43;5.50;;;;;;;4.89;83.40;100965.56;5014334;28;20331;-62
2022/04/04 07:27:46;;;;;;;11.27;5.43;;;;;;;5.00;83.04;100954.66;5014203;28;20146;-61
2022/04/04 07:30:17;;;;;;;11.48;5.30;;;;;;;5.05;83.33;100955.34;5014031;28;20501;-62
2022/04/04 07:32:47;;;;;;;11.93;5.13;;;;;;;5.13;82.62;100962.03;5013342;28;20049;-62
2022/04/04 07:35:19;;;;;;;9.07;5.05;;;;;;;5.18;83.42;100945.28;5013532;28;20105;-62
2022/04/04 07:37:48;;;;;;;10.65;5.57;;;;;;;5.21;83.34;100950.38;5013906;28;20069;-62
2022/04/04 07:40:19;;;;;;;10.60;6.07;;;;;;;5.31;83.72;100942.16;5012712;28;20104;-62
2022/04/04 07:42:49;;;;;;;10.63;5.90;;;;;;;5.35;83.50;100934.13;5012614;28;20049;-62
2022/04/04 07:45:19;;;;;;;10.38;5.35;;;;;;;5.39;83.92;100934.88;5014214;28;20489;-62
2022/04/04 07:47:49;;;;;;;11.38;5.35;;;;;;;5.50;84.04;100926.59;5013598;28;20053;-63
2022/04/04 07:50:19;;;;;;;12.90;5.80;;;;;;;5.48;84.51;100926.66;5012031;28;20053;-62
2022/04/04 07:52:48;;;;;;;10.48;5.68;;;;;;;5.51;86.40;100929.13;5013856;28;20515;-63
2022/04/04 07:55:17;;;;;;;10.50;5.50;;;;;;;5.49;87.11;100917.91;5013756;28;20108;-62
2022/04/04 07:57:46;;;;;;;11.57;6.55;;;;;;;5.51;87.75;100917.84;5013503;28;20053;-62
2022/04/04 08:00:17;;;;;;;14.15;6.32;;;;;;;5.54;89.23;100918.56;5013577;28;20062;-62
2022/04/04 08:02:46;;;;;;;10.80;6.38;;;;;;;5.53;89.40;100910.78;5013533;28;20038;-63
2022/04/04 08:05:16;;;;;;;13.48;6.53;;;;;;;5.62;89.29;100914.75;5013597;28;20042;-62
2022/04/04 08:07:51;;;;;;;12.13;6.30;;;;;;;5.58;90.43;100893.19;5013396;28;20041;-62
2022/04/04 08:10:25;;;;;;;13.55;6.78;;;;;;;5.51;91.24;100895.22;5013338;28;20045;-62
2022/04/04 08:12:54;;;;;;;10.73;6.78;;;;;;;5.54;93.08;100876.81;5013541;28;20483;-62
2022/04/04 08:15:22;;;;;;;13.55;7.30;;;;;;;5.47;92.82;100885.81;5013264;28;20396;-62
2022/04/04 08:17:56;;;;;;;12.23;7.15;;;;;;;5.42;93.82;100856.47;5013189;28;20064;-62
2022/04/04 08:20:24;;;;;;;11.60;7.90;;;;;;;5.42;97.48;100859.09;5013500;28;20481;-62
2022/04/04 08:22:54;;;;;;;11.75;7.45;;;;;;;5.36;97.12;100848.94;5012967;28;20057;-61
2022/04/04 08:25:22;;;;;;;12.55;7.72;;;;;;;5.41;95.90;100849.56;5013262;28;20497;-62
2022/04/04 08:27:53;;;;;;;13.95;7.55;;;;;;;5.41;96.64;100853.03;5012988;28;20046;-62
2022/04/04 08:30:22;;;;;;;13.68;7.50;;;;;;;5.42;95.75;100851.25;5013233;28;20359;-62
2022/04/04 08:32:51;;;;;;;13.52;7.38;;;;;;;5.42;95.23;100839.06;5011817;28;20108;-62
2022/04/04 08:35:21;;;;;;;12.25;6.82;;;;;;;5.46;95.89;100829.34;5011011;28;20046;-62
2022/04/04 08:37:49;;;;;;;13.23;8.05;;;;;;;5.55;94.13;100825.50;5009846;28;20417;-63
2022/04/04 08:40:19;;;;;;;12.02;7.38;;;;;;;5.46;94.58;100829.34;5011507;28;20405;-62
2022/04/04 08:42:48;;;;;;;12.55;7.63;;;;;;;5.49;95.27;100830.97;5009810;28;20084;-62
2022/04/04 08:45:17;;;;;;;18.63;7.68;;;;;;;5.50;93.25;100819.63;5010133;28;20050;-62
2022/04/04 08:47:46;;;;;;;13.13;7.60;;;;;;;5.53;92.83;100819.50;5009992;28;20441;-63
2022/04/04 08:50:14;;;;;;;13.05;7.40;;;;;;;5.53;93.77;100820.31;5010869;28;20073;-62
2022/04/04 08:52:43;;;;;;;13.80;7.80;;;;;;;5.63;93.30;100809.47;5009873;28;20121;-63
2022/04/04 08:55:13;;;;;;;12.93;7.55;;;;;;;5.66;92.66;100804.13;5010451;28;20084;-63
2022/04/04 08:57:42;;;;;;;13.57;8.07;;;;;;;5.68;91.76;100797.91;5010042;28;20500;-63
2022/04/04 09:00:11;;;;;;;14.10;7.68;;;;;;;5.75;90.87;100801.97;5010635;28;20508;-63
2022/04/04 09:02:57;;;;;;;12.52;7.72;;;;;;;5.73;92.13;100793.34;5010615;28;20050;-63
2022/04/04 09:05:26;;;;;;;17.13;7.88;;;;;;;5.76;90.84;100792.34;5010118;28;20060;-63
2022/04/04 09:08:06;;;;;;;17.50;8.50;;;;;;;5.76;90.36;100789.75;5009799;28;20120;-63
2022/04/04 09:10:37;;;;;;;12.02;7.65;;;;;;;5.81;90.55;100794.75;5010744;28;20050;-63
2022/04/04 09:13:08;;;;;;;14.15;8.30;;;;;;;5.75;91.19;100795.88;5009344;28;20042;-63
2022/04/04 09:15:53;;;;;;;17.95;8.38;;;;;;;5.65;94.00;100784.19;5010332;28;20413;-63
2022/04/04 09:18:41;;;;;;;13.48;8.90;;;;;;;5.57;95.49;100787.13;5003654;28;20385;-63
2022/04/04 09:21:13;;;;;;;13.57;8.63;;;;;;;5.56;97.31;100783.69;5009215;28;20465;-63
2022/04/04 09:23:55;;;;;;;14.68;9.45;;;;;;;5.48;99.21;100783.19;5010364;28;20124;-63
2022/04/04 09:26:29;;;;;;;15.32;8.68;;;;;;;5.50;99.21;100783.94;5003293;28;20175;-62
2022/04/04 09:29:00;;;;;;;18.65;9.48;;;;;;;5.44;100.00;100781.63;5010189;28;20050;-62
2022/04/04 09:31:29;;;;;;;14.82;9.93;;;;;;;5.37;100.00;100780.19;5012006;28;20370;-61
2022/04/04 09:34:01;;;;;;;13.43;8.88;;;;;;;5.47;100.00;100783.22;5012626;28;20037;-61
2022/04/04 09:36:29;;;;;;;14.65;9.45;;;;;;;5.40;100.00;100775.69;5013993;28;20042;-61
2022/04/04 09:39:08;;;;;;;14.45;9.60;;;;;;;5.35;100.00;100782.88;5013634;28;20121;-60
2022/04/04 09:41:40;;;;;;;15.45;9.02;;;;;;;5.32;100.00;100780.41;5008792;28;20046;-59
2022/04/04 09:44:11;;;;;;;12.95;9.30;;;;;;;5.21;100.00;100775.66;5013222;28;20046;-60
2022/04/04 09:46:41;;;;;;;13.90;9.57;;;;;;;5.14;100.00;100779.44;5013066;28;20081;-60
2022/04/04 09:49:13;;;;;;;22.35;10.18;;;;;;;5.12;100.00;100776.03;5013661;28;20469;-60
2022/04/04 09:51:47;;;;;;;16.73;10.35;;;;;;;5.10;100.00;100762.25;5014113;28;20052;-60
2022/04/04 09:54:18;;;;;;;15.60;9.85;;;;;;;5.15;100.00;100764.63;5012933;28;20505;-60
2022/04/04 09:56:50;;;;;;;15.32;10.27;;;;;;;5.12;100.00;100770.84;5014129;28;20041;-60
2022/04/04 09:59:20;;;;;;;20.95;10.25;;;;;;;5.12;100.00;100767.38;5011637;28;20045;-59
2022/04/04 10:01:49;;;;;;;15.60;10.27;;;;;;;5.06;100.00;100765.91;5014121;28;20046;-60
2022/04/04 10:04:20;;;;;;;17.67;10.68;;;;;;;5.14;100.00;100753.38;5013217;28;20424;-58
2022/04/04 10:06:53;;;;;;;17.35;10.05;;;;;;;5.06;100.00;100758.09;5013920;28;20536;-60
2022/04/04 10:09:21;;;;;;;14.65;10.70;;;;;;;5.08;100.00;100761.44;5011778;28;20054;-60
2022/04/04 10:11:52;;;;;;;16.02;10.82;;;;;;;5.02;100.00;100749.53;5013940;28;20393;-58
2022/04/04 10:14:21;;;;;;;16.00;10.02;;;;;;;5.07;100.00;100749.31;5012627;28;20468;-58
2022/04/04 10:16:53;;;;;;;18.48;10.45;;;;;;;5.16;100.00;100738.50;5013711;28;20100;-58
2022/04/04 10:19:24;;;;;;;15.95;10.55;;;;;;;5.15;100.00;100749.84;5011702;28;20048;-57
2022/04/04 10:21:53;;;;;;;15.35;9.93;;;;;;;5.08;100.00;100745.81;5013237;28;20049;-58
2022/04/04 10:24:22;;;;;;;15.43;10.35;;;;;;;5.13;100.00;100736.03;5012319;28;20074;-58
2022/04/04 10:26:52;;;;;;;15.82;10.60;;;;;;;5.08;100.00;100740.59;5013347;28;20084;-56
2022/04/04 10:29:24;;;;;;;17.60;11.07;;;;;;;5.06;100.00;100734.63;5012426;28;20421;-57
2022/04/04 10:31:54;;;;;;;16.23;10.15;;;;;;;5.13;100.00;100728.22;5011982;28;20038;-56
2022/04/04 10:34:24;;;;;;;14.52;10.40;;;;;;;5.10;100.00;100730.97;5011222;28;20493;-56
2022/04/04 10:37:01;;;;;;;17.52;9.93;;;;;;;5.10;100.00;100730.09;5011436;28;20060;-57
2022/04/04 10:39:44;;;;;;;16.17;10.48;;;;;;;5.11;100.00;100719.59;5008039;28;20049;-57
2022/04/04 10:42:31;;;;;;;15.63;9.98;;;;;;;5.17;100.00;100711.53;5012401;28;20428;-58
2022/04/04 10:45:07;;;;;;;18.92;10.93;;;;;;;5.18;100.00;100712.34;5006361;28;20073;-58
2022/04/04 10:47:38;;;;;;;18.17;11.48;;;;;;;5.18;100.00;100705.41;5012075;28;20527;-58
2022/04/04 10:50:20;;;;;;;19.60;11.20;;;;;;;5.20;100.00;100702.72;5014667;28;20187;-59
2022/04/04 10:52:49;;;;;;;18.70;12.15;;;;;;;5.25;100.00;100701.59;5015018;28;20045;-59
2022/04/04 10:55:52;;;;;;;19.45;10.93;;;;;;;5.17;100.00;100715.91;5015287;28;20100;-58
2022/04/04 10:58:24;;;;;;;18.45;12.27;;;;;;;5.18;100.00;100702.78;5015047;28;20121;-58
2022/04/04 11:00:57;;;;;;;21.73;12.10;;;;;;;5.16;100.00;100693.34;5013549;28;20120;-57
2022/04/04 11:03:33;;;;;;;24.33;11.57;;;;;;;5.19;100.00;100681.00;5014930;28;20489;-58
2022/04/04 11:09:00;;;;;;;16.20;11.50;;;;;;;5.25;100.00;100678.13;5014737;28;20048;-57
2022/04/04 11:11:52;;;;;;;20.83;12.30;;;;;;;5.22;100.00;100683.47;5014344;28;20049;-57
2022/04/04 11:14:54;;;;;;;17.42;11.15;;;;;;;5.34;100.00;100682.06;5014388;28;20185;-57
2022/04/04 11:17:38;;;;;;;14.13;9.90;;;;;;;5.32;100.00;100677.84;5014401;28;20049;-56
2022/04/04 11:20:16;;;;;;;16.15;9.10;;;;;;;5.29;100.00;100671.00;5014387;28;20092;-59
2022/04/04 11:22:51;;;;;;;13.15;9.35;;;;;;;5.31;100.00;100665.72;5014298;28;20050;-59
2022/04/04 11:25:21;;;;;;;10.88;7.57;;;;;;;5.31;100.00;100668.34;5014081;28;20446;-60
2022/04/04 11:27:49;;;;;;;12.20;8.30;;;;;;;5.30;100.00;100669.25;5014167;28;20080;-61
2022/04/04 11:30:20;;;;;;;14.48;8.63;;;;;;;5.32;100.00;100662.22;5014220;28;20049;-60
2022/04/04 11:32:54;;;;;;;14.68;9.15;;;;;;;5.29;100.00;100647.53;5014119;28;20085;-57
2022/04/04 11:35:27;;;;;;;13.48;8.82;;;;;;;5.29;100.00;100644.06;5014111;28;20046;-57
2022/04/04 11:37:57;;;;;;;15.77;9.70;;;;;;;5.33;100.00;100656.06;5012872;28;20053;-57